WXM80 ListenWXM80 Stop

You find our weather info also at:

UK Metoffice

WeatherCloud

Weather Underground

Northeastern Weather Network

AWEKAS

Citizen Weather Observer Program (CWOP)

HAMweather, WeatherForYou, PWS Weather


Weather Underground History page Text

Daily Summary for September 10, 2016 Units:  English    Metric   Both
« Previous Day
Next Day »
Daily Weekly Monthly Yearly Custom
  High: Low: Average:
Temperature: 90.4 °F 72.7 °F 79.3 °F
Dew Point: 79.1 °F 71.2 °F 73.9 °F
Humidity: 97 % 63 % 84 %
Wind Speed: 7.7 mph 0.0 mph 1.4 mph
Wind Gust: 14.0 mph - -
Wind:- - SSE
Pressure: 30.00 in 29.88 in -
Precipitation: 0.14 in    
Historical Graphs
 
 
Tabular Data for September 10, 2016
Time Temperature Dew Point Pressure Wind Wind Speed Wind Gust Humidity Rainfall Rate (Hourly)
00:00 77.2 °F 73.0 °F 29.95 in North 1.3 mph 3.5 mph 87 % 0.00 in
00:05 77.1 °F 73.3 °F 29.95 in Calm   1.0 mph 88 % 0.00 in
00:10 77.1 °F 73.3 °F 29.95 in North 0.3 mph   88 % 0.00 in
00:15 77.0 °F 73.2 °F 29.96 in Calm   1.2 mph 88 % 0.00 in
00:21 77.0 °F 73.2 °F 29.96 in Calm   3.0 mph 88 % 0.00 in
00:26 77.0 °F 73.5 °F 29.96 in Calm   4.0 mph 89 % 0.00 in
00:31 77.0 °F 73.8 °F 29.96 in Calm   3.0 mph 90 % 0.00 in
00:36 76.9 °F 73.4 °F 29.97 in Calm     89 % 0.00 in
00:41 76.9 °F 73.7 °F 29.97 in West 1.0 mph 3.0 mph 90 % 0.00 in
00:46 76.9 °F 73.7 °F 29.97 in West 1.0 mph 4.0 mph 90 % 0.01 in
00:51 76.9 °F 73.7 °F 29.97 in Calm     90 % 0.02 in
00:56 76.8 °F 74.0 °F 29.96 in Calm     91 % 0.00 in
01:01 76.8 °F 74.0 °F 29.96 in Calm     91 % 0.12 in
01:06 76.7 °F 73.9 °F 29.95 in Calm     91 % 0.13 in
01:11 76.6 °F 73.8 °F 29.95 in Calm     91 % 0.13 in
01:16 76.5 °F 74.0 °F 29.95 in Calm     92 % 0.13 in
01:21 76.4 °F 73.9 °F 29.96 in Calm     92 % 0.13 in
01:26 76.4 °F 73.9 °F 29.95 in Calm     92 % 0.13 in
01:31 76.2 °F 73.7 °F 29.95 in Calm     92 % 0.14 in
01:36 76.2 °F 73.7 °F 29.95 in Calm     92 % 0.14 in
01:41 76.1 °F 73.6 °F 29.96 in Calm     92 % 0.14 in
01:47 76.0 °F 73.5 °F 29.95 in Calm     92 % 0.12 in
01:52 76.0 °F 73.8 °F 29.95 in Calm     93 % 0.06 in
01:57 75.9 °F 73.7 °F 29.95 in Calm     93 % 0.02 in
02:02 75.8 °F 73.6 °F 29.95 in Calm     93 % 0.01 in
02:07 75.8 °F 73.6 °F 29.95 in Calm     93 % 0.01 in
02:12 75.7 °F 73.5 °F 29.95 in Calm     93 % 0.01 in
02:17 75.7 °F 73.8 °F 29.95 in Calm     94 % 0.01 in
02:22 75.6 °F 73.8 °F 29.95 in Calm     94 % 0.01 in
02:27 75.5 °F 73.3 °F 29.95 in Calm   1.2 mph 93 % 0.01 in
02:32 75.4 °F 73.2 °F 29.95 in Calm     93 % 0.00 in
02:38 75.4 °F 73.2 °F 29.95 in Calm     93 % 0.00 in
02:43 75.3 °F 73.1 °F 29.95 in Calm     93 % 0.00 in
02:48 75.2 °F 73.0 °F 29.95 in Calm     93 % 0.00 in
02:53 75.1 °F 72.9 °F 29.95 in Calm     93 % 0.00 in
02:58 75.0 °F 72.8 °F 29.95 in Calm     93 % 0.00 in
03:03 75.0 °F 72.8 °F 29.94 in Calm     93 % 0.00 in
03:08 74.9 °F 72.7 °F 29.94 in Calm     93 % 0.00 in
03:13 74.9 °F 72.7 °F 29.94 in Calm     93 % 0.00 in
03:18 74.8 °F 72.6 °F 29.94 in Calm     93 % 0.00 in
03:23 74.8 °F 73.0 °F 29.94 in Calm     94 % 0.00 in
03:29 74.8 °F 73.0 °F 29.94 in Calm     94 % 0.00 in
03:34 74.8 °F 73.0 °F 29.95 in Calm   1.2 mph 94 % 0.00 in
03:39 74.7 °F 72.9 °F 29.94 in WSW 0.1 mph 2.0 mph 94 % 0.00 in
03:44 74.7 °F 72.9 °F 29.94 in Calm     94 % 0.00 in
03:54 74.6 °F 72.8 °F 29.94 in Calm     94 % 0.00 in
04:09 74.5 °F 73.0 °F 29.94 in Calm     95 % 0.00 in
04:14 74.4 °F 72.9 °F 29.94 in Calm     95 % 0.00 in
04:20 74.4 °F 72.9 °F 29.94 in Calm     95 % 0.00 in
04:25 74.4 °F 72.9 °F 29.94 in Calm     95 % 0.00 in
04:30 74.2 °F 72.7 °F 29.94 in Calm     95 % 0.00 in
04:40 74.1 °F 72.6 °F 29.95 in Calm     95 % 0.00 in
04:45 74.0 °F 72.2 °F 29.95 in Calm     94 % 0.00 in
04:50 73.9 °F 72.1 °F 29.95 in Calm     94 % 0.00 in
04:55 73.8 °F 72.0 °F 29.95 in Calm     94 % 0.00 in
05:00 73.8 °F 72.3 °F 29.95 in Calm     95 % 0.00 in
05:05 73.7 °F 72.2 °F 29.96 in Calm     95 % 0.00 in
05:10 73.7 °F 72.2 °F 29.96 in Calm     95 % 0.00 in
05:16 73.6 °F 72.1 °F 29.96 in Calm     95 % 0.00 in
05:21 73.5 °F 72.0 °F 29.96 in Calm     95 % 0.00 in
05:26 73.5 °F 72.0 °F 29.96 in Calm     95 % 0.00 in
05:31 73.5 °F 71.9 °F 29.96 in Calm     95 % 0.00 in
05:36 73.4 °F 71.9 °F 29.96 in Calm     95 % 0.00 in
05:41 73.4 °F 71.9 °F 29.96 in Calm     95 % 0.00 in
05:46 73.3 °F 71.8 °F 29.96 in Calm     95 % 0.00 in
05:51 73.3 °F 71.8 °F 29.95 in Calm     95 % 0.00 in
05:56 73.3 °F 71.8 °F 29.96 in Calm     95 % 0.00 in
06:06 73.2 °F 71.7 °F 29.96 in Calm     95 % 0.00 in
06:11 73.2 °F 71.7 °F 29.96 in Calm     95 % 0.00 in
06:16 73.1 °F 71.6 °F 29.96 in Calm     95 % 0.00 in
06:21 73.1 °F 71.6 °F 29.97 in Calm     95 % 0.00 in
06:26 73.0 °F 71.5 °F 29.96 in Calm     95 % 0.00 in
06:31 73.0 °F 71.5 °F 29.96 in Calm     95 % 0.00 in
06:36 72.9 °F 71.4 °F 29.97 in Calm     95 % 0.00 in
06:41 72.9 °F 71.4 °F 29.97 in Calm     95 % 0.00 in
06:46 72.8 °F 71.3 °F 29.97 in Calm     95 % 0.00 in
06:51 72.8 °F 71.3 °F 29.97 in Calm     95 % 0.00 in
06:56 72.7 °F 71.2 °F 29.97 in Calm     95 % 0.00 in
07:01 72.7 °F 71.2 °F 29.97 in Calm     95 % 0.00 in
07:06 72.8 °F 71.3 °F 29.97 in Calm     95 % 0.00 in
07:11 72.9 °F 71.7 °F 29.97 in Calm     96 % 0.00 in
07:16 72.9 °F 71.7 °F 29.97 in Calm     96 % 0.00 in
07:21 73.0 °F 71.8 °F 29.97 in Calm     96 % 0.00 in
07:26 73.0 °F 71.8 °F 29.97 in Calm     96 % 0.00 in
07:31 73.0 °F 71.8 °F 29.98 in Calm     96 % 0.00 in
07:36 73.1 °F 71.9 °F 29.98 in Calm     96 % 0.00 in
07:41 73.2 °F 72.0 °F 29.98 in Calm     96 % 0.00 in
07:46 73.4 °F 72.2 °F 29.98 in Calm     96 % 0.00 in
07:51 73.5 °F 72.6 °F 29.98 in Calm     97 % 0.00 in
07:56 73.7 °F 72.8 °F 29.99 in Calm     97 % 0.00 in
08:01 73.8 °F 72.9 °F 29.99 in Calm     97 % 0.00 in
08:05 74.0 °F 73.1 °F 29.99 in Calm     97 % 0.00 in
08:11 74.1 °F 73.2 °F 29.99 in Calm     97 % 0.00 in
08:16 74.3 °F 73.4 °F 29.99 in Calm     97 % 0.00 in
08:21 74.3 °F 73.4 °F 29.99 in Calm     97 % 0.00 in
08:26 74.4 °F 73.5 °F 30.00 in Calm     97 % 0.00 in
08:31 74.4 °F 73.5 °F 29.99 in Calm     97 % 0.00 in
08:36 74.4 °F 73.5 °F 29.99 in Calm     97 % 0.00 in
08:41 74.5 °F 73.6 °F 29.99 in Calm     97 % 0.00 in
08:46 74.5 °F 73.6 °F 29.99 in Calm   1.0 mph 97 % 0.00 in
08:51 74.6 °F 73.7 °F 29.99 in ESE 1.0 mph 3.0 mph 97 % 0.00 in
08:56 74.7 °F 73.8 °F 29.99 in Calm   2.0 mph 97 % 0.00 in
09:01 74.8 °F 73.9 °F 29.99 in SE 0.4 mph 1.2 mph 97 % 0.00 in
09:06 74.8 °F 73.6 °F 29.99 in Calm   1.0 mph 96 % 0.00 in
09:11 74.9 °F 73.7 °F 29.99 in East 1.0 mph 3.0 mph 96 % 0.00 in
09:16 74.9 °F 73.7 °F 29.99 in ENE 1.0 mph 3.0 mph 96 % 0.00 in
09:21 74.8 °F 73.3 °F 29.99 in East 1.0 mph 3.0 mph 95 % 0.00 in
09:26 74.8 °F 73.3 °F 29.99 in ENE 1.0 mph 5.0 mph 95 % 0.00 in
09:31 74.9 °F 73.4 °F 29.99 in ENE 1.0 mph 5.0 mph 95 % 0.00 in
09:36 75.0 °F 73.4 °F 29.99 in NE 1.0 mph 7.0 mph 95 % 0.00 in
09:41 75.2 °F 73.7 °F 29.99 in NE 1.0 mph 3.0 mph 95 % 0.00 in
09:46 75.5 °F 73.6 °F 29.99 in ENE 1.0 mph 5.0 mph 94 % 0.00 in
09:51 75.8 °F 73.9 °F 29.99 in ENE 1.5 mph 3.5 mph 94 % 0.00 in
09:56 76.2 °F 74.0 °F 29.99 in ENE 2.0 mph 3.0 mph 93 % 0.00 in
10:01 76.6 °F 74.4 °F 29.99 in ENE 1.1 mph 3.0 mph 93 % 0.00 in
10:06 76.9 °F 74.4 °F 30.00 in ENE 1.0 mph 2.3 mph 92 % 0.00 in
10:11 77.2 °F 74.4 °F 30.00 in ENE 3.3 mph 6.9 mph 91 % 0.00 in
10:16 77.4 °F 74.2 °F 30.00 in ENE 0.9 mph 2.3 mph 90 % 0.00 in
10:21 77.7 °F 74.5 °F 30.00 in NNE 1.0 mph 1.2 mph 90 % 0.00 in
10:26 77.9 °F 74.7 °F 30.00 in NNE 1.2 mph 2.3 mph 90 % 0.00 in
10:31 78.1 °F 74.6 °F 30.00 in ENE 2.1 mph 4.0 mph 89 % 0.00 in
10:36 78.2 °F 74.4 °F 30.00 in ENE 3.6 mph 3.6 mph 88 % 0.00 in
10:42 78.2 °F 74.4 °F 29.99 in ENE 1.5 mph 5.8 mph 88 % 0.00 in
10:47 78.4 °F 74.2 °F 29.99 in East 2.9 mph 4.6 mph 87 % 0.00 in
10:52 78.6 °F 74.4 °F 29.99 in ENE 1.9 mph 4.0 mph 87 % 0.00 in
10:57 79.0 °F 74.8 °F 29.99 in ENE 2.1 mph 3.5 mph 87 % 0.00 in
11:02 79.2 °F 75.0 °F 29.98 in NE 1.7 mph 3.5 mph 87 % 0.00 in
11:07 79.6 °F 75.0 °F 29.98 in ENE 2.1 mph 3.5 mph 86 % 0.00 in
11:12 80.0 °F 75.4 °F 29.98 in ENE 2.5 mph 3.5 mph 86 % 0.00 in
11:17 80.6 °F 75.7 °F 29.98 in ENE 1.4 mph 6.9 mph 85 % 0.00 in
11:22 81.2 °F 75.9 °F 29.98 in ENE 1.9 mph 4.6 mph 84 % 0.00 in
11:27 81.7 °F 76.0 °F 29.98 in NE 4.0 mph 8.1 mph 83 % 0.00 in
11:33 82.1 °F 76.1 °F 29.98 in NE 2.1 mph 4.0 mph 82 % 0.00 in
11:38 82.6 °F 75.8 °F 29.98 in NE 1.6 mph 3.5 mph 80 % 0.00 in
11:43 83.1 °F 76.3 °F 29.98 in ENE 1.4 mph 4.6 mph 80 % 0.00 in
11:48 83.6 °F 76.0 °F 29.98 in NE 2.4 mph 4.6 mph 78 % 0.00 in
11:53 84.2 °F 77.0 °F 29.98 in ENE 1.2 mph 2.3 mph 79 % 0.00 in
11:58 84.8 °F 76.8 °F 29.97 in ENE 1.6 mph 4.0 mph 77 % 0.00 in
12:03 85.1 °F 77.1 °F 29.97 in ENE 2.5 mph 4.0 mph 77 % 0.00 in
12:08 85.2 °F 76.8 °F 29.97 in East 3.7 mph 5.8 mph 76 % 0.00 in
12:13 85.5 °F 77.9 °F 29.98 in North 0.4 mph 3.5 mph 78 % 0.00 in
12:18 85.9 °F 77.5 °F 29.97 in NE 0.6 mph 3.5 mph 76 % 0.00 in
12:24 86.5 °F 78.0 °F 29.97 in SE 2.7 mph 5.0 mph 76 % 0.00 in
12:29 87.2 °F 78.3 °F 29.97 in SE 0.6 mph 3.5 mph 75 % 0.00 in
12:34 87.7 °F 78.4 °F 29.96 in South 4.1 mph 5.8 mph 74 % 0.00 in
12:39 87.6 °F 76.6 °F 29.96 in SE 3.8 mph 6.0 mph 70 % 0.00 in
12:44 87.5 °F 78.2 °F 29.97 in SSE 3.4 mph 5.0 mph 74 % 0.00 in
12:49 87.7 °F 78.4 °F 29.96 in WNW 0.7 mph 2.3 mph 74 % 0.00 in
12:54 88.0 °F 77.8 °F 29.96 in SE 1.6 mph 4.6 mph 72 % 0.00 in
12:59 88.0 °F 77.4 °F 29.96 in SSE 2.1 mph 6.0 mph 71 % 0.00 in
13:04 87.5 °F 76.9 °F 29.96 in WSW 3.6 mph 7.0 mph 71 % 0.00 in
13:09 87.5 °F 76.9 °F 29.96 in SSE 3.7 mph 9.0 mph 71 % 0.00 in
13:15 87.2 °F 77.1 °F 29.96 in SE 5.6 mph 7.0 mph 72 % 0.00 in
13:20 87.3 °F 78.4 °F 29.96 in WSW 2.1 mph 2.1 mph 75 % 0.00 in
13:25 87.8 °F 77.2 °F 29.95 in WSW 5.1 mph 8.1 mph 71 % 0.00 in
13:30 88.0 °F 77.8 °F 29.95 in SSE 1.2 mph 3.5 mph 72 % 0.00 in
13:35 88.5 °F 77.5 °F 29.95 in SE 2.2 mph 7.0 mph 70 % 0.00 in
13:40 88.6 °F 77.1 °F 29.95 in SW 1.6 mph 3.5 mph 69 % 0.00 in
13:45 89.1 °F 78.5 °F 29.95 in SSE 0.5 mph 2.3 mph 71 % 0.00 in
13:50 89.8 °F 79.1 °F 29.94 in SE 2.1 mph 4.0 mph 71 % 0.00 in
13:55 90.4 °F 78.4 °F 29.94 in SSE 3.9 mph 9.0 mph 68 % 0.00 in
14:00 90.1 °F 76.3 °F 29.94 in SE 7.7 mph 10.4 mph 64 % 0.00 in
14:06 89.7 °F 76.4 °F 29.94 in SSE 2.0 mph 12.0 mph 65 % 0.00 in
14:11 89.9 °F 77.0 °F 29.93 in SSE 3.0 mph 7.0 mph 66 % 0.00 in
14:16 90.2 °F 76.4 °F 29.93 in South 1.0 mph 8.0 mph 64 % 0.00 in
14:21 90.1 °F 76.2 °F 29.93 in South 1.0 mph 8.0 mph 64 % 0.00 in
14:26 89.6 °F 75.3 °F 29.93 in SSE 2.0 mph 7.0 mph 63 % 0.00 in
14:31 89.1 °F 75.3 °F 29.93 in South 2.0 mph 6.0 mph 64 % 0.00 in
14:36 88.6 °F 75.8 °F 29.93 in SSE 6.0 mph 14.0 mph 66 % 0.00 in
14:41 88.1 °F 75.3 °F 29.93 in SSE 2.7 mph 5.8 mph 66 % 0.00 in
14:46 87.8 °F 75.9 °F 29.93 in SSE 3.0 mph 9.0 mph 68 % 0.00 in
14:51 87.4 °F 76.0 °F 29.93 in SE 3.2 mph 6.0 mph 69 % 0.00 in
14:56 87.3 °F 76.7 °F 29.93 in WSW 2.4 mph 6.9 mph 71 % 0.00 in
15:01 87.3 °F 75.9 °F 29.93 in South 1.0 mph 4.0 mph 69 % 0.00 in
15:06 87.1 °F 75.3 °F 29.93 in SE 2.2 mph 6.0 mph 68 % 0.00 in
15:11 86.8 °F 75.8 °F 29.93 in West 2.5 mph 6.9 mph 70 % 0.00 in
15:16 86.8 °F 75.8 °F 29.93 in WSW 0.1 mph 3.5 mph 70 % 0.00 in
15:21 86.8 °F 75.8 °F 29.93 in SSW 4.0 mph 8.1 mph 70 % 0.00 in
15:26 86.9 °F 75.5 °F 29.93 in WSW 2.5 mph 6.0 mph 69 % 0.00 in
15:31 87.1 °F 75.7 °F 29.92 in SSW 3.3 mph 8.0 mph 69 % 0.00 in
15:36 87.3 °F 75.4 °F 29.92 in SE 0.2 mph 1.2 mph 68 % 0.00 in
15:42 87.4 °F 75.1 °F 29.92 in South 2.8 mph 5.8 mph 67 % 0.00 in
15:47 87.2 °F 74.9 °F 29.92 in South 0.8 mph 4.6 mph 67 % 0.00 in
15:52 87.1 °F 75.7 °F 29.92 in SE 0.7 mph 3.5 mph 69 % 0.00 in
15:57 86.9 °F 75.5 °F 29.93 in ESE 2.4 mph 5.8 mph 69 % 0.00 in
16:02 86.5 °F 75.5 °F 29.92 in SSW 1.4 mph 4.0 mph 70 % 0.00 in
16:07 86.4 °F 75.5 °F 29.92 in SSW 1.8 mph 3.5 mph 70 % 0.00 in
16:12 86.2 °F 75.3 °F 29.92 in SSW 0.3 mph 2.0 mph 70 % 0.00 in
16:17 85.9 °F 75.4 °F 29.92 in South 2.4 mph 9.2 mph 71 % 0.00 in
16:22 85.5 °F 75.0 °F 29.92 in SSW 2.8 mph 4.6 mph 71 % 0.00 in
16:27 85.4 °F 75.3 °F 29.92 in SE 2.6 mph 3.5 mph 72 % 0.00 in
16:33 85.4 °F 75.3 °F 29.92 in South 1.5 mph 3.5 mph 72 % 0.00 in
16:38 85.5 °F 75.9 °F 29.92 in SSE 1.3 mph 10.4 mph 73 % 0.00 in
16:43 85.7 °F 75.6 °F 29.92 in WSW 3.3 mph 4.6 mph 72 % 0.00 in
16:48 85.7 °F 75.6 °F 29.92 in South 2.8 mph 4.6 mph 72 % 0.00 in
16:53 85.7 °F 75.2 °F 29.92 in SSE 1.7 mph 3.5 mph 71 % 0.00 in
16:58 85.3 °F 74.8 °F 29.92 in SSW 2.2 mph 5.0 mph 71 % 0.00 in
17:03 84.9 °F 74.9 °F 29.92 in South 2.2 mph 5.8 mph 72 % 0.00 in
17:08 84.5 °F 74.9 °F 29.92 in SSW 3.1 mph 11.5 mph 73 % 0.00 in
17:13 84.3 °F 74.7 °F 29.91 in SSW 2.3 mph 9.2 mph 73 % 0.00 in
17:18 84.3 °F 75.1 °F 29.92 in SE 2.0 mph 4.0 mph 74 % 0.00 in
17:24 84.3 °F 74.7 °F 29.91 in SSW 2.7 mph 4.6 mph 73 % 0.00 in
17:29 84.1 °F 74.5 °F 29.92 in SSE 4.4 mph 11.5 mph 73 % 0.00 in
17:34 84.1 °F 74.9 °F 29.91 in SE 1.5 mph 3.5 mph 74 % 0.00 in
17:38 84.1 °F 74.5 °F 29.91 in SSW 1.3 mph 4.0 mph 73 % 0.00 in
17:43 84.1 °F 74.5 °F 29.91 in West 1.6 mph 4.0 mph 73 % 0.00 in
17:48 84.0 °F 74.4 °F 29.91 in SSE 0.9 mph 3.5 mph 73 % 0.00 in
17:53 83.5 °F 74.3 °F 29.91 in SW 0.5 mph 3.5 mph 74 % 0.00 in
17:58 83.1 °F 73.9 °F 29.91 in SSW 4.0 mph 5.0 mph 74 % 0.00 in
18:03 82.7 °F 73.6 °F 29.91 in South 3.0 mph 6.9 mph 74 % 0.00 in
18:09 82.3 °F 73.6 °F 29.91 in SSW 3.3 mph 5.8 mph 75 % 0.00 in
18:14 81.9 °F 73.6 °F 29.91 in SE 2.5 mph 6.0 mph 76 % 0.00 in
18:19 81.8 °F 73.5 °F 29.91 in South 1.4 mph 3.5 mph 76 % 0.00 in
18:24 81.6 °F 73.7 °F 29.90 in SSW 1.9 mph 3.5 mph 77 % 0.00 in
18:29 81.5 °F 73.2 °F 29.90 in SSW 2.4 mph 5.0 mph 76 % 0.00 in
18:34 81.3 °F 73.4 °F 29.90 in SW 0.5 mph 2.3 mph 77 % 0.00 in
18:39 81.2 °F 73.3 °F 29.90 in South 1.3 mph 4.6 mph 77 % 0.00 in
18:44 81.1 °F 73.2 °F 29.90 in South 1.3 mph 4.6 mph 77 % 0.00 in
18:49 81.0 °F 73.1 °F 29.90 in SW 1.6 mph 4.6 mph 77 % 0.00 in
18:54 80.9 °F 73.0 °F 29.89 in South 2.7 mph 5.8 mph 77 % 0.00 in
19:00 80.9 °F 73.0 °F 29.89 in South 2.9 mph 8.1 mph 77 % 0.00 in
19:05 80.8 °F 72.9 °F 29.89 in South 2.7 mph 5.8 mph 77 % 0.00 in
19:10 80.8 °F 72.9 °F 29.89 in East 2.5 mph 4.6 mph 77 % 0.00 in
19:15 80.7 °F 72.8 °F 29.88 in SSW 3.3 mph 6.0 mph 77 % 0.00 in
19:20 80.7 °F 72.8 °F 29.89 in SSE 1.8 mph 5.0 mph 77 % 0.00 in
19:25 80.6 °F 72.7 °F 29.88 in SW 3.1 mph 5.8 mph 77 % 0.00 in
19:30 80.5 °F 72.6 °F 29.88 in SW 2.7 mph 5.8 mph 77 % 0.00 in
19:35 80.5 °F 73.0 °F 29.88 in South 1.9 mph 3.5 mph 78 % 0.00 in
19:40 80.4 °F 72.9 °F 29.88 in SSW 1.3 mph 4.6 mph 78 % 0.00 in
19:45 80.3 °F 72.8 °F 29.88 in SW 2.6 mph 5.8 mph 78 % 0.00 in
19:50 80.2 °F 73.1 °F 29.89 in South 2.0 mph 5.0 mph 79 % 0.00 in
19:56 80.1 °F 73.0 °F 29.88 in SSW 2.0 mph 6.0 mph 79 % 0.00 in
20:00 80.0 °F 72.9 °F 29.89 in SW 1.2 mph 4.0 mph 79 % 0.00 in
20:06 79.9 °F 72.8 °F 29.89 in South 2.0 mph 8.0 mph 79 % 0.00 in
20:11 79.8 °F 73.1 °F 29.89 in South 5.0 mph 12.0 mph 80 % 0.00 in
20:16 79.6 °F 72.9 °F 29.89 in SE 2.7 mph 6.9 mph 80 % 0.00 in
20:21 79.5 °F 73.2 °F 29.89 in SSE 2.4 mph 5.8 mph 81 % 0.00 in
20:26 79.4 °F 73.1 °F 29.89 in South 1.4 mph 3.5 mph 81 % 0.00 in
20:31 79.2 °F 72.9 °F 29.89 in SSE 1.6 mph 5.0 mph 81 % 0.00 in
20:36 79.1 °F 73.1 °F 29.89 in South 1.8 mph 4.6 mph 82 % 0.00 in
20:41 79.1 °F 73.1 °F 29.89 in SSE 1.9 mph 4.6 mph 82 % 0.00 in
20:46 79.0 °F 73.0 °F 29.89 in SSW 2.8 mph 5.8 mph 82 % 0.00 in
20:51 78.9 °F 72.9 °F 29.90 in SE 1.2 mph 4.6 mph 82 % 0.00 in
20:56 78.7 °F 73.1 °F 29.89 in South 2.9 mph 4.6 mph 83 % 0.00 in
21:02 78.7 °F 73.1 °F 29.89 in SSW 2.2 mph 5.8 mph 83 % 0.00 in
21:07 78.6 °F 73.0 °F 29.89 in SSW 2.4 mph 5.0 mph 83 % 0.00 in
21:12 78.4 °F 72.8 °F 29.90 in SSE 3.1 mph 8.1 mph 83 % 0.00 in
21:17 78.4 °F 73.2 °F 29.90 in SSW 1.3 mph 4.0 mph 84 % 0.00 in
21:22 78.2 °F 73.0 °F 29.90 in SE 2.3 mph 6.9 mph 84 % 0.00 in
21:32 78.0 °F 73.1 °F 29.90 in SSE 1.3 mph 4.6 mph 85 % 0.00 in
21:37 77.9 °F 73.0 °F 29.90 in SSW 3.4 mph 9.2 mph 85 % 0.00 in
21:42 77.8 °F 73.3 °F 29.91 in SSW 1.6 mph 3.5 mph 86 % 0.00 in
21:47 77.7 °F 73.2 °F 29.91 in South 3.7 mph 6.9 mph 86 % 0.00 in
21:52 77.6 °F 73.1 °F 29.91 in SSE 2.8 mph 3.5 mph 86 % 0.00 in
21:58 77.6 °F 73.1 °F 29.90 in South 1.7 mph 8.1 mph 86 % 0.00 in
22:03 77.5 °F 73.0 °F 29.90 in South 2.7 mph 6.0 mph 86 % 0.00 in
22:08 77.5 °F 73.0 °F 29.90 in SW 3.2 mph 5.8 mph 86 % 0.00 in
22:13 77.4 °F 72.9 °F 29.90 in SE 2.9 mph 5.8 mph 86 % 0.00 in
22:18 77.4 °F 72.9 °F 29.90 in South 4.1 mph 6.0 mph 86 % 0.00 in
22:23 77.3 °F 73.1 °F 29.90 in SE 1.9 mph 6.0 mph 87 % 0.00 in
22:33 77.2 °F 73.0 °F 29.90 in WSW 3.5 mph 3.5 mph 87 % 0.00 in
22:38 77.2 °F 73.0 °F 29.90 in SSW 2.8 mph 5.0 mph 87 % 0.00 in
22:43 77.1 °F 72.9 °F 29.91 in SSE 2.3 mph 5.8 mph 87 % 0.00 in
22:49 77.1 °F 72.9 °F 29.90 in South 1.6 mph 4.6 mph 87 % 0.00 in
22:54 77.1 °F 72.9 °F 29.91 in ESE 2.2 mph 5.8 mph 87 % 0.00 in
22:59 77.1 °F 72.9 °F 29.90 in SSW 1.7 mph 6.9 mph 87 % 0.00 in
23:04 77.1 °F 72.9 °F 29.91 in SSE 2.6 mph 4.6 mph 87 % 0.00 in
23:14 77.1 °F 72.9 °F 29.90 in SW 1.3 mph 4.0 mph 87 % 0.00 in
23:19 77.1 °F 72.9 °F 29.91 in SSE 0.6 mph 2.0 mph 87 % 0.00 in
23:24 77.1 °F 72.9 °F 29.91 in WSW 2.1 mph 3.5 mph 87 % 0.00 in
23:29 77.1 °F 72.9 °F 29.91 in South 0.5 mph 4.6 mph 87 % 0.00 in
23:34 77.1 °F 72.9 °F 29.91 in South 1.4 mph 8.1 mph 87 % 0.00 in
23:40 77.0 °F 72.8 °F 29.91 in SSW 2.2 mph 3.5 mph 87 % 0.00 in
23:45 77.0 °F 72.8 °F 29.91 in SSW 1.7 mph 3.5 mph 87 % 0.00 in
23:50 77.0 °F 72.8 °F 29.91 in SSW 2.8 mph 4.6 mph 87 % 0.00 in
23:55 77.0 °F 72.8 °F 29.91 in SSW 3.6 mph 8.1 mph 87 % 0.00 in
Crab Meadow Weather
Compliments of Weather Underground - 2.75 mb

Script developed by  Jim McMurry - jmcmurry@mwt.net Adapted for the template by  Wim van der Kuil - Leuven-Template.eu

Lightning: At any given moment, there are about 1,800 thunderstorms happening around the world. Approximately 100 lightning bolts strike the earth every second.